createdAt,value
2023-01-12T00:03:50.904Z,86.37
2023-01-12T00:08:54.930Z,86.43
2023-01-12T00:13:59.735Z,86.60
2023-01-12T00:19:16.825Z,86.46
2023-01-12T00:24:19.995Z,86.44
2023-01-12T00:29:23.684Z,86.61
2023-01-12T00:34:29.429Z,86.97
2023-01-12T00:39:32.550Z,86.71
2023-01-12T00:44:54.560Z,86.88
2023-01-12T00:49:57.748Z,87.11
2023-01-12T00:55:01.023Z,87.07
2023-01-12T01:00:03.483Z,87.11
2023-01-12T01:05:05.640Z,87.14
2023-01-12T01:10:08.796Z,87.59
2023-01-12T01:15:11.413Z,87.42
2023-01-12T01:20:14.853Z,87.12
2023-01-12T01:25:19.025Z,87.33
2023-01-12T01:30:22.226Z,87.64
2023-01-12T01:35:25.883Z,87.90
2023-01-12T01:40:29.622Z,87.82
2023-01-12T01:45:33.518Z,88.18
2023-01-12T01:50:42.439Z,88.26
2023-01-12T01:56:00.545Z,88.23
2023-01-12T02:01:03.450Z,88.43
2023-01-12T02:06:07.242Z,88.43
2023-01-12T02:11:31.829Z,88.84
2023-01-12T02:16:39.251Z,88.75
2023-01-12T02:21:59.284Z,88.87
2023-01-12T02:27:28.572Z,88.98
2023-01-12T02:32:54.865Z,88.75
2023-01-12T02:38:00.182Z,89.17
2023-01-12T02:43:26.214Z,88.83
2023-01-12T02:48:45.567Z,88.82
2023-01-12T02:54:00.312Z,88.96
2023-01-12T02:59:09.370Z,88.64
2023-01-12T03:04:14.808Z,88.75
2023-01-12T03:09:19.950Z,89.10
2023-01-12T03:14:23.905Z,89.23
2023-01-12T03:19:32.832Z,89.04
2023-01-12T03:24:40.868Z,89.19
2023-01-12T03:29:52.199Z,89.26
2023-01-12T03:34:56.023Z,89.53
2023-01-12T03:40:07.200Z,89.36
2023-01-12T03:45:22.729Z,89.13
2023-01-12T03:50:35.793Z,89.67
2023-01-12T03:55:39.850Z,89.74
2023-01-12T04:00:42.827Z,89.19
2023-01-12T04:05:46.657Z,89.40
2023-01-12T04:10:49.686Z,90.15
2023-01-12T04:15:53.213Z,89.82
2023-01-12T04:20:57.963Z,90.11
2023-01-12T04:26:02.516Z,89.73
2023-01-12T04:31:05.196Z,89.77
2023-01-12T04:36:11.578Z,89.38
2023-01-12T04:41:14.684Z,89.50
2023-01-12T04:46:17.835Z,89.96
2023-01-12T04:51:20.849Z,90.09
2023-01-12T04:56:25.062Z,89.22
2023-01-12T05:01:29.669Z,89.39
2023-01-12T05:06:31.876Z,89.32
2023-01-12T05:11:34.659Z,89.34
2023-01-12T05:16:38.501Z,89.48
2023-01-12T05:21:41.497Z,89.58
2023-01-12T05:26:44.140Z,89.85
2023-01-12T05:31:47.936Z,89.50
2023-01-12T05:36:51.575Z,89.31
2023-01-12T05:42:13.506Z,89.34
2023-01-12T05:47:15.867Z,89.35
2023-01-12T05:52:19.815Z,89.09
2023-01-12T05:57:23.361Z,89.49
2023-01-12T06:02:26.678Z,89.28
2023-01-12T06:07:29.445Z,89.40
2023-01-12T06:12:51.495Z,89.13
2023-01-12T06:18:01.147Z,89.05
2023-01-12T06:23:08.321Z,88.86
2023-01-12T06:28:13.332Z,88.98
2023-01-12T06:33:16.564Z,89.16
2023-01-12T06:38:21.546Z,88.95
2023-01-12T06:43:25.155Z,89.30
2023-01-12T06:48:38.710Z,88.94
2023-01-12T06:53:44.136Z,88.89
2023-01-12T06:58:46.549Z,89.14
2023-01-12T07:03:49.972Z,88.86
2023-01-12T07:08:52.472Z,88.40
2023-01-12T07:13:55.735Z,88.32
2023-01-12T07:18:58.934Z,88.65
2023-01-12T07:24:02.723Z,88.62
2023-01-12T07:29:05.760Z,88.93
2023-01-12T07:34:09.093Z,88.98
2023-01-12T07:39:12.867Z,88.95
2023-01-12T07:44:15.739Z,88.62
2023-01-12T07:49:19.504Z,88.91
2023-01-12T07:54:22.223Z,88.87
2023-01-12T07:59:25.602Z,88.63
2023-01-12T08:04:28.067Z,88.35
2023-01-12T08:09:30.795Z,88.48
2023-01-12T08:14:38.635Z,88.51
2023-01-12T08:19:51.658Z,88.48
2023-01-12T08:25:01.219Z,88.42
2023-01-12T08:30:08.599Z,88.88
2023-01-12T08:35:12.519Z,88.51
2023-01-12T08:40:15.964Z,88.84
2023-01-12T08:45:21.043Z,88.71
2023-01-12T08:50:24.601Z,88.42
2023-01-12T08:55:31.190Z,88.40
2023-01-12T09:00:35.210Z,88.56
2023-01-12T09:05:38.922Z,88.33
2023-01-12T09:10:47.143Z,88.24
2023-01-12T09:16:11.219Z,88.04
2023-01-12T09:21:20.608Z,87.97
2023-01-12T09:26:32.404Z,88.03
2023-01-12T09:31:38.053Z,87.89
2023-01-12T09:36:42.497Z,87.75
2023-01-12T09:42:07.448Z,87.25
2023-01-12T09:47:54.054Z,87.22
2023-01-12T09:53:16.847Z,86.79
2023-01-12T09:58:28.605Z,86.73
2023-01-12T10:03:43.841Z,86.53
2023-01-12T10:09:03.600Z,86.36
2023-01-12T10:14:34.841Z,86.05
2023-01-12T10:19:51.190Z,86.14
2023-01-12T10:24:55.569Z,85.77
2023-01-12T10:30:00.324Z,85.75
2023-01-12T10:35:04.287Z,85.44
2023-01-12T10:40:20.765Z,85.02
2023-01-12T10:45:25.275Z,84.83
2023-01-12T10:50:30.265Z,84.30
2023-01-12T10:55:39.137Z,84.18
2023-01-12T11:00:49.619Z,83.60
2023-01-12T11:05:53.157Z,83.23
2023-01-12T11:10:57.009Z,83.14
2023-01-12T11:16:09.441Z,82.62
2023-01-12T11:21:18.007Z,82.13
2023-01-12T11:26:26.505Z,81.75
2023-01-12T11:31:36.777Z,81.39
2023-01-12T11:36:44.048Z,81.33
2023-01-12T11:42:10.346Z,80.86
2023-01-12T11:47:16.913Z,80.58
2023-01-12T11:52:20.518Z,80.10
2023-01-12T11:57:41.012Z,79.83
2023-01-12T12:03:09.939Z,79.47
2023-01-12T12:08:30.672Z,79.29
2023-01-12T12:13:42.009Z,79.20
2023-01-12T12:18:47.282Z,78.87
2023-01-12T12:24:03.904Z,78.72
2023-01-12T12:29:24.188Z,78.56
2023-01-12T12:34:55.817Z,78.54
2023-01-12T12:40:28.094Z,78.20
2023-01-12T12:46:07.551Z,77.97
2023-01-12T12:51:15.887Z,77.48
2023-01-12T12:56:27.896Z,77.50
2023-01-12T13:01:37.001Z,77.67
2023-01-12T13:06:52.346Z,76.90
2023-01-12T13:12:02.373Z,76.83
2023-01-12T13:17:21.752Z,77.12
2023-01-12T13:22:49.562Z,76.59
2023-01-12T13:28:09.532Z,76.66
2023-01-12T13:33:16.508Z,76.44
2023-01-12T13:38:44.965Z,76.46
2023-01-12T13:43:49.167Z,76.34
2023-01-12T13:48:55.813Z,76.35
2023-01-12T13:54:01.863Z,76.53
2023-01-12T13:59:07.961Z,76.21
2023-01-12T14:04:20.202Z,76.41
2023-01-12T14:09:24.874Z,76.34
2023-01-12T14:15:06.074Z,76.76
2023-01-12T14:20:16.993Z,76.60
2023-01-12T14:25:24.751Z,76.72
2023-01-12T14:30:28.754Z,76.82
2023-01-12T14:35:32.198Z,76.96
2023-01-12T14:40:34.592Z,76.94
2023-01-12T14:46:12.971Z,76.94
2023-01-12T14:51:22.500Z,76.94
2023-01-12T14:56:34.967Z,76.78
2023-01-12T15:01:42.669Z,76.89
2023-01-12T15:06:47.196Z,77.08
2023-01-12T15:11:50.224Z,77.40
2023-01-12T15:17:13.254Z,76.98
2023-01-12T15:22:37.765Z,77.27
2023-01-12T15:27:41.796Z,77.48
2023-01-12T15:32:47.829Z,77.63
2023-01-12T15:37:54.144Z,77.82
2023-01-12T15:42:59.296Z,77.69
2023-01-12T15:48:03.811Z,78.05
2023-01-12T15:53:19.643Z,78.21
2023-01-12T15:58:24.317Z,77.83
2023-01-12T16:08:53.428Z,78.29
2023-01-12T16:13:57.202Z,78.39
2023-01-12T16:19:01.110Z,78.54
2023-01-12T16:24:04.883Z,78.56
2023-01-12T16:29:09.376Z,78.49
2023-01-12T16:34:17.463Z,78.30
2023-01-12T16:39:24.962Z,78.54
2023-01-12T16:44:29.781Z,79.14
2023-01-12T16:49:35.904Z,79.08
2023-01-12T16:54:42.193Z,78.63
2023-01-12T16:59:49.375Z,78.87
2023-01-12T17:04:53.297Z,78.93
2023-01-12T17:09:57.492Z,79.06
2023-01-12T17:15:01.381Z,79.10
2023-01-12T17:20:05.366Z,79.25
2023-01-12T17:25:10.326Z,79.33
2023-01-12T17:30:13.656Z,79.30
2023-01-12T17:35:17.051Z,79.51
2023-01-12T17:40:20.334Z,79.40
2023-01-12T17:45:24.258Z,79.32
2023-01-12T17:50:28.575Z,79.50
2023-01-12T17:55:36.676Z,79.09
2023-01-12T18:00:46.284Z,78.94
2023-01-12T18:06:02.842Z,79.21
2023-01-12T18:11:09.360Z,79.02
2023-01-12T18:16:18.964Z,79.38
2023-01-12T18:21:26.653Z,79.21
2023-01-12T18:26:31.644Z,79.34
2023-01-12T18:31:42.611Z,79.49
2023-01-12T18:36:50.305Z,79.70
2023-01-12T18:42:14.287Z,79.42
2023-01-12T18:47:38.619Z,79.03
2023-01-12T18:53:04.428Z,79.12
2023-01-12T18:58:10.315Z,79.05
2023-01-12T19:03:17.963Z,79.18
2023-01-12T19:08:28.291Z,79.01
2023-01-12T19:13:54.640Z,79.01
2023-01-12T19:18:59.799Z,79.05
2023-01-12T19:24:22.444Z,78.97
2023-01-12T19:29:25.897Z,79.14
2023-01-12T19:34:28.913Z,79.13
2023-01-12T19:39:46.441Z,78.95
2023-01-12T19:44:51.191Z,79.05
2023-01-12T19:49:55.622Z,78.93
2023-01-12T19:54:58.882Z,79.15
2023-01-12T20:00:07.902Z,79.34
2023-01-12T20:05:14.041Z,79.20
2023-01-12T20:10:18.940Z,79.16
2023-01-12T20:15:21.892Z,79.58
2023-01-12T20:20:25.249Z,79.40
2023-01-12T20:25:28.608Z,79.43
2023-01-12T20:30:37.982Z,79.20
2023-01-12T20:35:46.895Z,79.16
2023-01-12T20:40:50.768Z,79.47
2023-01-12T20:45:54.170Z,79.34
2023-01-12T20:50:57.175Z,78.86
2023-01-12T20:56:00.887Z,79.17
2023-01-12T21:01:11.210Z,79.23
2023-01-12T21:06:18.223Z,79.26
2023-01-12T21:11:23.130Z,79.66
2023-01-12T21:16:26.591Z,79.09
2023-01-12T21:21:29.636Z,79.17
2023-01-12T21:26:32.905Z,79.50
2023-01-12T21:31:35.952Z,79.24
2023-01-12T21:36:39.477Z,79.35
2023-01-12T21:42:01.992Z,79.33
2023-01-12T21:47:09.336Z,79.77
2023-01-12T21:52:12.315Z,79.21
2023-01-12T21:57:15.214Z,79.44
2023-01-12T22:02:18.092Z,79.50
2023-01-12T22:07:20.738Z,79.53
2023-01-12T22:12:22.950Z,79.56
2023-01-12T22:17:25.164Z,79.94
2023-01-12T22:22:27.788Z,79.90
2023-01-12T22:27:31.117Z,80.01
2023-01-12T22:32:34.256Z,80.26
2023-01-12T22:37:39.606Z,80.09
2023-01-12T22:43:01.074Z,79.98
2023-01-12T22:48:03.631Z,80.36
2023-01-12T22:53:05.953Z,80.49
2023-01-12T22:58:08.837Z,80.44
2023-01-12T23:03:13.742Z,80.44
2023-01-12T23:08:16.536Z,80.72
2023-01-12T23:13:20.839Z,80.48
2023-01-12T23:18:27.828Z,80.83
2023-01-12T23:23:31.754Z,81.18
2023-01-12T23:28:41.285Z,81.18
2023-01-12T23:33:46.428Z,81.24
2023-01-12T23:39:00.953Z,81.32
2023-01-12T23:44:06.602Z,81.71
2023-01-12T23:49:09.828Z,81.70
2023-01-12T23:54:16.443Z,82.14
2023-01-12T23:59:19.306Z,82.25
